Anniston Metropolitan Airport
KANB : now visible

Airfield :











YOU CAN JOIN US ON...

 
LOGIN :

Register | Disclaimer

   EN    FR    IT 

 









Legend :    VFR   Marginal VFR   IFR   Intensive IFR   Very Intensive IFR
Visi :
Ceiling :
>= 8 km
>= 3000ft
5 to 8 km
1000 to 3000 ft
1500m to 5 km
500 to 1000 ft
800 to 1500m
200 to 500 ft
< 800m
< 200 ft
Symbols :   Thunderstorms  Fog  Heavy snow  Heavy precipitations  Wind > 20 kt






- Airport Elevation : 612 ft
- IATA code : ANB


KANB - Anniston Metropolitan

CURRENT METAR :
  • 142153Z AUTO 25007KT 10SM OVC042 12/06 A2985 RMK AO2 SLP111 T01220056

EXPIRED METARs :
  • 142053Z AUTO 27011KT 10SM FEW038 13/04 A2984 RMK AO2 SLP106 T01330044 53001
  • 141953Z AUTO 27012KT 10SM CLR 13/04 A2983 RMK AO2 SLP104 T01280039

TAF KANB
Valid from the 14 at 18:00 until the 15 at 18:00 UTC


141729Z 1418/1518 26008KT P6SM SCT030
FM150000 VRB03KT P6SM BKN070
FM150800 00000KT P6SM BKN015
FM151200 VRB03KT 4SM BR OVC006
FM151600 15006KT P6SM OVC015



MET'MAP, your aeronautical weather chart ! - Copyright ORBIFLY December 2007 - Disclaimer

ORBIFLY MET'MAP TEAM :

Programming & Development : Alexandra Zaïnal
Concept & original design : Baudouin d'Aumeries
Assistance for programming : Marc-Olivier Méhu
Technical & hardware support : Manuel Goepfert

Contact : metmap@orbifly.com




SOURCES & CREDITS :

   NOAA       Earth
Advisory